Time;durP1;ratioP1;P1;durP2;ratioP2;P2;SDS_P1;SDS_P2;PMS_P1;PMS_P2;Temp;Humidity;BMP_temperature;BMP_pressure;BME280_temperature;BME280_humidity;BME280_pressure;Samples;Min_cycle;Max_cycle;Signal;HPM_P1;HPM_P2
2023/07/17 00:00:13;;;;;;;2.03;1.13;;;;;;;;;;5092808;28;20447;-80
2023/07/17 00:02:39;;;;;;;4.13;0.90;;;;;;;;;;5092349;28;20115;-80
2023/07/17 00:05:05;;;;;;;1.77;1.20;;;;;;;;;;5093801;28;20475;-81
2023/07/17 00:07:31;;;;;;;2.25;1.25;;;;;;;;;;5075452;28;20032;-81
2023/07/17 00:09:57;;;;;;;1.13;1.02;;;;;;;;;;5092163;28;20028;-81
2023/07/17 00:12:22;;;;;;;2.13;1.10;;;;;;;;;;5075365;28;20039;-80
2023/07/17 00:14:48;;;;;;;2.00;1.10;;;;;;;;;;5093749;28;20036;-81
2023/07/17 00:17:14;;;;;;;2.33;1.25;;;;;;;;;;5092570;28;20107;-81
2023/07/17 00:19:40;;;;;;;2.17;1.05;;;;;;;;;;5093509;28;20039;-81
2023/07/17 00:22:06;;;;;;;1.42;1.10;;;;;;;;;;5093457;28;20028;-81
2023/07/17 00:24:32;;;;;;;2.10;1.30;;;;;;;;;;5092250;28;20474;-81
2023/07/17 00:26:57;;;;;;;2.10;1.33;;;;;;;;;;5092092;28;20098;-81
2023/07/17 00:29:30;;;;;;;1.25;1.05;;;;;;;;;;5092131;28;20176;-81
2023/07/17 00:31:55;;;;;;;2.07;1.50;;;;;;;;;;5092437;28;20063;-81
2023/07/17 00:34:21;;;;;;;2.15;1.10;;;;;;;;;;5075204;28;20059;-82
2023/07/17 00:36:47;;;;;;;1.70;1.15;;;;;;;;;;5092115;28;20110;-82
2023/07/17 00:39:15;;;;;;;1.27;1.15;;;;;;;;;;5091984;28;20036;-81
2023/07/17 00:41:41;;;;;;;1.08;0.98;;;;;;;;;;5075181;28;20394;-81
2023/07/17 00:44:06;;;;;;;2.22;1.13;;;;;;;;;;5093231;28;20032;-81
2023/07/17 00:46:33;;;;;;;2.20;1.20;;;;;;;;;;5097257;28;20046;-81
2023/07/17 00:49:00;;;;;;;1.35;1.25;;;;;;;;;;5095978;28;20031;-81
2023/07/17 00:51:25;;;;;;;2.17;0.98;;;;;;;;;;5095956;28;20028;-81
2023/07/17 00:53:51;;;;;;;3.08;1.30;;;;;;;;;;5095855;28;20042;-80
2023/07/17 00:56:16;;;;;;;1.65;1.05;;;;;;;;;;5096941;28;20046;-81
2023/07/17 00:58:42;;;;;;;2.03;1.20;;;;;;;;;;5095631;28;20036;-80
2023/07/17 01:01:08;;;;;;;4.05;1.40;;;;;;;;;;5078962;28;20479;-80
2023/07/17 01:03:33;;;;;;;3.40;1.40;;;;;;;;;;5095779;28;20486;-80
2023/07/17 01:05:59;;;;;;;2.25;1.20;;;;;;;;;;5095656;28;20028;-81
2023/07/17 01:08:24;;;;;;;2.00;1.30;;;;;;;;;;5095590;28;20035;-81
2023/07/17 01:10:50;;;;;;;2.03;0.90;;;;;;;;;;5097217;28;20028;-81
2023/07/17 01:13:19;;;;;;;1.98;1.17;;;;;;;;;;5096859;28;20032;-81
2023/07/17 01:15:44;;;;;;;2.40;1.00;;;;;;;;;;5095519;28;20028;-82
2023/07/17 01:18:09;;;;;;;2.90;1.15;;;;;;;;;;5095668;28;20024;-83
2023/07/17 01:20:35;;;;;;;2.97;1.30;;;;;;;;;;5095572;28;20031;-82
2023/07/17 01:23:04;;;;;;;2.03;1.20;;;;;;;;;;5095571;28;20032;-82
2023/07/17 01:25:30;;;;;;;2.13;1.20;;;;;;;;;;5096461;28;20031;-82
2023/07/17 01:27:56;;;;;;;2.70;1.35;;;;;;;;;;5095161;28;20032;-82
2023/07/17 01:30:21;;;;;;;3.83;1.58;;;;;;;;;;5095148;28;20028;-82
2023/07/17 01:32:47;;;;;;;2.83;1.35;;;;;;;;;;5095316;28;20027;-82
2023/07/17 01:35:12;;;;;;;2.20;1.23;;;;;;;;;;5095255;28;20032;-82
2023/07/17 01:37:37;;;;;;;2.47;1.30;;;;;;;;;;5096445;28;20058;-82
2023/07/17 01:40:03;;;;;;;3.50;1.42;;;;;;;;;;5095049;28;20032;-82
2023/07/17 01:42:29;;;;;;;2.15;1.40;;;;;;;;;;5078114;28;20067;-81
2023/07/17 01:44:54;;;;;;;2.58;1.27;;;;;;;;;;5094896;28;20474;-81
2023/07/17 01:47:20;;;;;;;3.03;1.40;;;;;;;;;;5096303;28;20052;-81
2023/07/17 01:49:45;;;;;;;2.47;1.40;;;;;;;;;;5096177;28;20031;-81
2023/07/17 01:52:12;;;;;;;2.47;1.08;;;;;;;;;;5095859;28;20028;-81
2023/07/17 01:54:38;;;;;;;2.42;1.35;;;;;;;;;;5094432;28;20118;-81
2023/07/17 01:57:03;;;;;;;2.85;1.10;;;;;;;;;;5093923;28;20028;-81
2023/07/17 01:59:29;;;;;;;1.55;1.33;;;;;;;;;;5094567;28;20038;-81
2023/07/17 02:01:54;;;;;;;2.20;1.20;;;;;;;;;;5094479;28;20024;-81
2023/07/17 02:04:19;;;;;;;1.95;1.50;;;;;;;;;;5094442;28;20462;-81
2023/07/17 02:06:45;;;;;;;1.92;1.20;;;;;;;;;;5095669;28;20028;-81
2023/07/17 02:09:10;;;;;;;3.05;1.20;;;;;;;;;;5077410;28;20478;-81
2023/07/17 02:11:35;;;;;;;1.58;1.00;;;;;;;;;;5094561;28;20039;-81
2023/07/17 02:14:02;;;;;;;2.90;1.55;;;;;;;;;;5078217;28;20035;-81
2023/07/17 02:16:27;;;;;;;3.15;1.20;;;;;;;;;;5095493;28;20136;-81
2023/07/17 02:18:53;;;;;;;2.00;1.20;;;;;;;;;;5096443;28;20502;-81
2023/07/17 02:21:18;;;;;;;3.47;1.50;;;;;;;;;;5095259;28;20055;-81
2023/07/17 02:23:43;;;;;;;2.00;1.15;;;;;;;;;;5095573;28;20107;-81
2023/07/17 02:26:10;;;;;;;2.38;1.10;;;;;;;;;;5094070;28;20375;-81
2023/07/17 02:28:36;;;;;;;2.65;1.38;;;;;;;;;;5094054;28;20028;-81
2023/07/17 02:31:02;;;;;;;3.60;1.40;;;;;;;;;;5094155;28;20032;-81
2023/07/17 02:33:27;;;;;;;1.80;1.10;;;;;;;;;;5076528;28;20040;-81
2023/07/17 02:35:52;;;;;;;2.22;1.33;;;;;;;;;;5095205;28;20089;-81
2023/07/17 02:38:18;;;;;;;2.25;1.30;;;;;;;;;;5093824;28;20028;-81
2023/07/17 02:40:43;;;;;;;1.95;1.08;;;;;;;;;;5094994;28;20024;-81
2023/07/17 02:43:09;;;;;;;2.10;1.10;;;;;;;;;;5077153;28;20020;-81
2023/07/17 02:45:36;;;;;;;2.05;1.30;;;;;;;;;;5095129;28;20429;-81
2023/07/17 02:48:01;;;;;;;2.10;1.25;;;;;;;;;;5094812;28;20081;-81
2023/07/17 02:50:26;;;;;;;1.85;1.25;;;;;;;;;;5094727;28;20036;-82
2023/07/17 02:52:52;;;;;;;4.32;1.33;;;;;;;;;;5093717;28;20395;-82
2023/07/17 02:55:17;;;;;;;2.33;1.15;;;;;;;;;;5094485;28;20131;-82
2023/07/17 02:57:43;;;;;;;1.52;1.08;;;;;;;;;;5093654;28;20442;-82
2023/07/17 03:00:12;;;;;;;2.63;1.20;;;;;;;;;;5093700;28;20051;-82
2023/07/17 03:02:39;;;;;;;2.45;1.17;;;;;;;;;;5076680;28;20059;-82
2023/07/17 03:05:05;;;;;;;1.88;1.20;;;;;;;;;;5093608;28;20031;-81
2023/07/17 03:07:34;;;;;;;1.42;1.25;;;;;;;;;;5093103;28;20032;-82
2023/07/17 03:10:00;;;;;;;1.92;1.33;;;;;;;;;;5075644;28;20395;-82
2023/07/17 03:12:25;;;;;;;2.15;1.35;;;;;;;;;;5076711;28;20039;-82
2023/07/17 03:14:50;;;;;;;1.20;1.10;;;;;;;;;;5094311;28;20027;-82
2023/07/17 03:17:16;;;;;;;1.38;1.08;;;;;;;;;;5094506;28;20123;-81
2023/07/17 03:19:41;;;;;;;2.47;1.35;;;;;;;;;;5092803;28;20085;-81
2023/07/17 03:22:07;;;;;;;3.67;1.20;;;;;;;;;;5092921;28;20024;-81
2023/07/17 03:24:32;;;;;;;2.75;1.30;;;;;;;;;;5094117;28;20072;-81
2023/07/17 03:26:58;;;;;;;1.70;1.20;;;;;;;;;;5094325;28;20032;-81
2023/07/17 03:29:24;;;;;;;2.25;1.30;;;;;;;;;;5092845;28;20542;-80
2023/07/17 03:31:50;;;;;;;2.30;1.20;;;;;;;;;;5092715;28;20097;-80
2023/07/17 03:34:15;;;;;;;3.67;1.40;;;;;;;;;;5093022;28;20470;-80
2023/07/17 03:36:40;;;;;;;2.63;1.35;;;;;;;;;;5094227;28;20111;-81
2023/07/17 03:39:06;;;;;;;3.05;1.27;;;;;;;;;;5092506;28;20035;-80
2023/07/17 03:41:31;;;;;;;3.22;1.25;;;;;;;;;;5093843;28;20027;-80
2023/07/17 03:43:59;;;;;;;2.78;1.20;;;;;;;;;;5094037;28;20471;-80
2023/07/17 03:46:25;;;;;;;4.75;1.30;;;;;;;;;;5093554;28;20055;-80
2023/07/17 03:48:51;;;;;;;2.97;1.40;;;;;;;;;;5093578;28;20024;-80
2023/07/17 03:51:16;;;;;;;2.45;1.38;;;;;;;;;;5092362;28;20039;-81
2023/07/17 03:53:41;;;;;;;3.58;1.75;;;;;;;;;;5092416;28;20050;-80
2023/07/17 03:56:07;;;;;;;1.55;1.10;;;;;;;;;;5093490;28;20514;-80
2023/07/17 03:58:32;;;;;;;2.85;1.10;;;;;;;;;;5092589;28;20039;-80
2023/07/17 04:00:57;;;;;;;2.65;1.20;;;;;;;;;;5092343;28;20039;-80
2023/07/17 04:03:23;;;;;;;1.38;1.10;;;;;;;;;;5092252;28;20026;-80
2023/07/17 04:05:48;;;;;;;2.45;1.30;;;;;;;;;;5093716;28;20538;-81
2023/07/17 04:08:14;;;;;;;1.98;1.40;;;;;;;;;;5092160;28;20031;-81
2023/07/17 04:10:39;;;;;;;2.15;1.23;;;;;;;;;;5092402;28;20379;-80
2023/07/17 04:13:05;;;;;;;1.50;1.05;;;;;;;;;;5092114;28;20109;-81
2023/07/17 04:15:30;;;;;;;2.65;1.20;;;;;;;;;;5075363;28;20050;-81
2023/07/17 04:17:55;;;;;;;5.38;1.60;;;;;;;;;;5093319;28;20389;-81
2023/07/17 04:20:21;;;;;;;2.35;1.40;;;;;;;;;;5095642;28;20028;-81
2023/07/17 04:22:46;;;;;;;1.83;1.10;;;;;;;;;;5097931;28;20032;-81
2023/07/17 04:25:12;;;;;;;4.13;1.35;;;;;;;;;;5096353;28;20024;-81
2023/07/17 04:27:37;;;;;;;2.45;1.20;;;;;;;;;;5097696;28;20074;-81
2023/07/17 04:30:03;;;;;;;3.72;1.45;;;;;;;;;;5096385;28;20028;-81
2023/07/17 04:32:28;;;;;;;3.42;1.35;;;;;;;;;;5096196;28;20484;-78
2023/07/17 04:34:54;;;;;;;1.65;0.95;;;;;;;;;;5097764;28;20107;-83
2023/07/17 04:37:19;;;;;;;2.13;1.30;;;;;;;;;;5096486;28;20467;-83
2023/07/17 04:39:45;;;;;;;2.88;1.30;;;;;;;;;;5096280;28;20028;-80
2023/07/17 04:42:10;;;;;;;1.92;1.17;;;;;;;;;;5096321;28;20031;-79
2023/07/17 04:44:36;;;;;;;3.05;1.27;;;;;;;;;;5096618;28;20473;-80
2023/07/17 04:47:01;;;;;;;7.22;1.80;;;;;;;;;;5096306;28;20043;-80
2023/07/17 04:49:27;;;;;;;3.88;1.67;;;;;;;;;;5097504;28;20044;-80
2023/07/17 04:51:52;;;;;;;4.95;2.10;;;;;;;;;;5097223;28;20137;-80
2023/07/17 04:54:17;;;;;;;4.53;1.73;;;;;;;;;;5097122;28;20060;-84
2023/07/17 04:56:43;;;;;;;4.40;1.88;;;;;;;;;;5095799;28;20081;-83
2023/07/17 04:59:08;;;;;;;4.43;2.00;;;;;;;;;;5083660;28;20044;-79
2023/07/17 05:01:34;;;;;;;4.95;1.65;;;;;;;;;;5075407;28;20021;-79
2023/07/17 05:03:59;;;;;;;4.97;1.67;;;;;;;;;;5075277;28;20082;-80
2023/07/17 05:06:25;;;;;;;4.45;2.10;;;;;;;;;;5076776;28;20028;-82
2023/07/17 05:08:50;;;;;;;4.30;2.03;;;;;;;;;;5076421;28;20038;-81
2023/07/17 05:11:16;;;;;;;10.27;2.40;;;;;;;;;;5075070;28;20434;-82
2023/07/17 05:13:41;;;;;;;8.45;2.47;;;;;;;;;;5076642;28;20100;-80
2023/07/17 05:16:07;;;;;;;5.32;2.17;;;;;;;;;;5075127;28;20535;-81
2023/07/17 05:18:32;;;;;;;8.48;1.85;;;;;;;;;;5075420;28;20107;-82
2023/07/17 05:20:58;;;;;;;5.57;2.20;;;;;;;;;;5075777;28;20028;-82
2023/07/17 05:23:23;;;;;;;4.70;1.83;;;;;;;;;;5075095;28;20020;-81
2023/07/17 05:25:54;;;;;;;5.57;2.20;;;;;;;;;;5058193;28;20020;-81
2023/07/17 05:28:19;;;;;;;3.85;1.92;;;;;;;;;;5074964;28;20032;-80
2023/07/17 05:30:44;;;;;;;7.35;1.98;;;;;;;;;;5074575;28;20034;-82
2023/07/17 05:33:10;;;;;;;22.80;2.35;;;;;;;;;;5073536;28;20070;-82
2023/07/17 05:35:35;;;;;;;5.15;1.80;;;;;;;;;;5074398;28;20028;-86
2023/07/17 05:38:01;;;;;;;4.47;1.70;;;;;;;;;;5091715;28;20107;-85
2023/07/17 05:40:26;;;;;;;6.00;2.30;;;;;;;;;;5077570;28;20032;-86
2023/07/17 05:42:51;;;;;;;2.85;1.85;;;;;;;;;;5077697;28;20024;-84
2023/07/17 05:45:17;;;;;;;3.50;2.00;;;;;;;;;;5077429;28;20032;-84
2023/07/17 05:47:42;;;;;;;4.65;1.75;;;;;;;;;;5111650;28;20032;-85
2023/07/17 05:50:09;;;;;;;5.65;2.03;;;;;;;;;;5084543;28;20445;-85
2023/07/17 05:52:34;;;;;;;5.50;1.80;;;;;;;;;;5074334;28;20059;-85
2023/07/17 05:55:00;;;;;;;5.13;1.77;;;;;;;;;;5075271;28;20069;-84
2023/07/17 05:57:25;;;;;;;5.20;2.15;;;;;;;;;;5075537;28;20044;-84
2023/07/17 05:59:51;;;;;;;2.42;1.70;;;;;;;;;;5075635;28;20090;-84
2023/07/17 06:02:16;;;;;;;3.78;1.70;;;;;;;;;;5073983;28;20082;-83
2023/07/17 06:04:41;;;;;;;4.05;1.90;;;;;;;;;;5075191;28;20033;-83
2023/07/17 06:07:07;;;;;;;6.68;2.00;;;;;;;;;;5073687;28;20024;-84
2023/07/17 06:09:34;;;;;;;3.28;2.22;;;;;;;;;;5078760;28;20035;-84
2023/07/17 06:12:00;;;;;;;4.22;2.00;;;;;;;;;;5077600;28;20036;-87
2023/07/17 06:14:25;;;;;;;6.38;2.20;;;;;;;;;;5095238;28;20112;-86
2023/07/17 06:16:51;;;;;;;3.13;2.00;;;;;;;;;;5094187;28;20180;-85
2023/07/17 06:19:16;;;;;;;4.53;2.33;;;;;;;;;;5093757;28;20485;-85
2023/07/17 06:21:42;;;;;;;3.72;2.22;;;;;;;;;;5095112;28;20039;-85
2023/07/17 06:24:07;;;;;;;4.05;2.50;;;;;;;;;;5094107;28;20049;-85
2023/07/17 06:26:34;;;;;;;3.45;2.00;;;;;;;;;;5094292;28;20478;-88
2023/07/17 06:28:59;;;;;;;3.83;2.00;;;;;;;;;;5094083;28;20020;-86
2023/07/17 06:31:25;;;;;;;4.40;2.05;;;;;;;;;;5094734;28;20089;-86
2023/07/17 06:33:50;;;;;;;4.28;2.40;;;;;;;;;;5085131;28;20456;-86
2023/07/17 06:36:15;;;;;;;4.60;2.20;;;;;;;;;;5107195;28;20028;-85
2023/07/17 06:38:41;;;;;;;3.13;1.90;;;;;;;;;;5094912;28;20110;-85
2023/07/17 06:41:06;;;;;;;4.88;2.47;;;;;;;;;;5076573;28;20036;-86
2023/07/17 06:43:32;;;;;;;3.75;2.30;;;;;;;;;;5093217;28;20233;-85
2023/07/17 06:45:57;;;;;;;5.53;2.35;;;;;;;;;;5079493;28;20097;-86
2023/07/17 06:48:22;;;;;;;5.10;2.45;;;;;;;;;;5039887;28;20036;-85
2023/07/17 06:50:48;;;;;;;4.90;2.50;;;;;;;;;;5071865;28;20058;-85
2023/07/17 06:53:13;;;;;;;4.93;2.50;;;;;;;;;;5074492;28;20503;-85
2023/07/17 06:55:39;;;;;;;4.57;2.20;;;;;;;;;;5076152;28;20048;-85
2023/07/17 06:58:04;;;;;;;6.85;2.80;;;;;;;;;;5056820;28;20025;-84
2023/07/17 07:00:30;;;;;;;6.60;2.88;;;;;;;;;;5063516;28;20087;-85
2023/07/17 07:02:55;;;;;;;4.85;2.40;;;;;;;;;;5074045;28;20417;-85
2023/07/17 07:05:20;;;;;;;3.70;2.20;;;;;;;;;;5072609;28;20028;-81
2023/07/17 07:07:46;;;;;;;4.95;2.80;;;;;;;;;;5089768;28;20391;-84
2023/07/17 07:10:11;;;;;;;4.72;2.70;;;;;;;;;;5073916;28;20435;-83
2023/07/17 07:12:38;;;;;;;4.28;2.80;;;;;;;;;;5074168;28;20048;-84
2023/07/17 07:15:06;;;;;;;8.13;2.78;;;;;;;;;;5075074;28;20031;-83
2023/07/17 07:17:32;;;;;;;5.80;2.95;;;;;;;;;;5073885;28;20078;-84
2023/07/17 07:19:58;;;;;;;4.43;2.70;;;;;;;;;;5074051;28;20040;-87
2023/07/17 07:22:23;;;;;;;4.60;2.72;;;;;;;;;;5072449;28;20028;-83
2023/07/17 07:24:48;;;;;;;5.85;2.88;;;;;;;;;;5073941;28;20168;-80
2023/07/17 07:27:15;;;;;;;5.18;2.75;;;;;;;;;;5072173;28;20052;-81
2023/07/17 07:29:40;;;;;;;4.85;2.70;;;;;;;;;;5072680;28;20077;-81
2023/07/17 07:32:06;;;;;;;6.35;2.95;;;;;;;;;;5072393;28;20028;-82
2023/07/17 07:34:32;;;;;;;5.18;2.72;;;;;;;;;;5055739;28;20028;-80
2023/07/17 07:36:57;;;;;;;4.60;2.60;;;;;;;;;;5054991;28;20656;-80
2023/07/17 07:39:23;;;;;;;9.18;2.80;;;;;;;;;;5072499;28;20024;-85
2023/07/17 07:41:48;;;;;;;5.88;3.20;;;;;;;;;;5072010;28;20472;-84
2023/07/17 07:44:13;;;;;;;5.05;2.78;;;;;;;;;;5071912;28;20033;-84
2023/07/17 07:46:39;;;;;;;5.03;2.88;;;;;;;;;;5072268;28;20379;-86
2023/07/17 07:49:04;;;;;;;6.97;3.13;;;;;;;;;;5093548;28;20020;-86
2023/07/17 07:51:30;;;;;;;6.15;3.20;;;;;;;;;;5093341;28;20401;-85
2023/07/17 07:53:55;;;;;;;8.68;3.42;;;;;;;;;;5092500;28;20089;-85
2023/07/17 07:56:21;;;;;;;7.60;3.30;;;;;;;;;;5091749;28;20558;-84
2023/07/17 07:58:47;;;;;;;3.92;2.42;;;;;;;;;;5092996;28;20506;-86
2023/07/17 08:01:12;;;;;;;4.97;2.70;;;;;;;;;;5092338;28;20044;-84
2023/07/17 08:03:40;;;;;;;9.38;2.78;;;;;;;;;;5091928;28;20046;-83
2023/07/17 08:06:05;;;;;;;5.60;2.92;;;;;;;;;;5094811;28;20047;-92
2023/07/17 08:08:31;;;;;;;8.55;3.35;;;;;;;;;;5075889;28;20499;-84
2023/07/17 08:10:57;;;;;;;11.32;3.40;;;;;;;;;;5072194;28;20119;-83
2023/07/17 08:13:22;;;;;;;7.35;2.95;;;;;;;;;;5074958;28;20040;-83
2023/07/17 08:15:48;;;;;;;7.15;3.30;;;;;;;;;;5071807;28;20487;-85
2023/07/17 08:18:13;;;;;;;9.40;3.90;;;;;;;;;;5072886;28;20033;-85
2023/07/17 08:20:38;;;;;;;11.35;4.38;;;;;;;;;;5072711;28;20074;-84
2023/07/17 08:23:04;;;;;;;12.15;4.00;;;;;;;;;;5073026;28;20049;-84
2023/07/17 08:25:29;;;;;;;7.25;3.75;;;;;;;;;;5085190;28;20029;-84
2023/07/17 08:27:55;;;;;;;7.00;3.20;;;;;;;;;;5072794;28;20510;-84
2023/07/17 08:30:20;;;;;;;6.95;3.10;;;;;;;;;;5088402;28;20039;-83
2023/07/17 08:32:45;;;;;;;8.48;3.38;;;;;;;;;;5091927;28;20034;-84
2023/07/17 08:35:11;;;;;;;7.60;2.90;;;;;;;;;;5092687;28;20028;-83
2023/07/17 08:37:36;;;;;;;6.32;2.88;;;;;;;;;;5093128;28;20052;-83
2023/07/17 08:40:03;;;;;;;9.00;2.65;;;;;;;;;;5074525;28;20514;-85
2023/07/17 08:42:29;;;;;;;6.03;2.85;;;;;;;;;;5091716;28;20024;-84
2023/07/17 08:44:56;;;;;;;4.07;2.40;;;;;;;;;;5092755;28;20501;-84
2023/07/17 08:47:21;;;;;;;5.50;2.70;;;;;;;;;;5091884;28;20020;-83
2023/07/17 08:49:47;;;;;;;8.98;3.17;;;;;;;;;;5084616;28;20028;-83
2023/07/17 08:52:13;;;;;;;5.72;2.50;;;;;;;;;;5071388;28;20028;-83
2023/07/17 08:54:38;;;;;;;5.43;2.78;;;;;;;;;;5071457;28;20032;-83
2023/07/17 08:57:04;;;;;;;4.55;2.63;;;;;;;;;;5071177;28;20048;-83
2023/07/17 08:59:36;;;;;;;8.52;2.30;;;;;;;;;;5071489;28;20130;-84
2023/07/17 09:02:03;;;;;;;3.97;2.15;;;;;;;;;;5072672;28;20036;-84
2023/07/17 09:04:30;;;;;;;4.55;2.30;;;;;;;;;;5071192;28;20020;-83
2023/07/17 09:06:55;;;;;;;5.30;2.50;;;;;;;;;;5074305;28;20483;-82
2023/07/17 09:09:21;;;;;;;4.72;2.58;;;;;;;;;;5058657;28;20032;-84
2023/07/17 09:11:46;;;;;;;5.18;2.35;;;;;;;;;;5075523;28;20125;-84
2023/07/17 09:14:12;;;;;;;4.07;2.47;;;;;;;;;;5075578;28;20089;-83
2023/07/17 09:16:38;;;;;;;3.65;2.30;;;;;;;;;;5091949;28;20556;-83
2023/07/17 09:19:04;;;;;;;4.60;2.20;;;;;;;;;;5075113;28;20020;-84
2023/07/17 09:21:29;;;;;;;3.95;2.15;;;;;;;;;;5058441;28;20078;-82
2023/07/17 09:23:56;;;;;;;5.10;2.33;;;;;;;;;;5075264;28;20032;-83
2023/07/17 09:26:25;;;;;;;5.30;2.40;;;;;;;;;;5075043;28;20020;-88
2023/07/17 09:28:56;;;;;;;4.40;2.15;;;;;;;;;;5076755;28;20029;-85
2023/07/17 09:31:26;;;;;;;3.67;2.22;;;;;;;;;;5077171;28;20024;-85
2023/07/17 09:33:52;;;;;;;3.63;2.10;;;;;;;;;;5074819;28;20029;-85
2023/07/17 09:36:18;;;;;;;3.30;2.22;;;;;;;;;;5075116;28;20023;-85
2023/07/17 09:38:43;;;;;;;2.80;2.15;;;;;;;;;;5076430;28;20033;-84
2023/07/17 09:41:23;;;;;;;3.53;2.00;;;;;;;;;;5093032;28;20486;-83
2023/07/17 09:44:05;;;;;;;3.55;1.95;;;;;;;;;;5076464;28;20024;-84
2023/07/17 09:46:37;;;;;;;3.50;2.00;;;;;;;;;;5075418;28;20024;-82
2023/07/17 09:49:03;;;;;;;4.25;2.00;;;;;;;;;;5075247;28;20240;-83
2023/07/17 09:51:30;;;;;;;4.18;2.30;;;;;;;;;;5075112;28;20067;-81
2023/07/17 09:53:57;;;;;;;4.65;2.30;;;;;;;;;;5075852;28;20425;-86
2023/07/17 09:56:28;;;;;;;3.15;1.75;;;;;;;;;;5057872;28;20414;-87
2023/07/17 09:58:57;;;;;;;3.33;1.70;;;;;;;;;;5076290;28;20028;-93
2023/07/17 10:01:23;;;;;;;4.00;1.92;;;;;;;;;;5074415;28;20036;-80
2023/07/17 10:03:50;;;;;;;3.17;1.90;;;;;;;;;;5074681;28;20020;-83
2023/07/17 10:06:17;;;;;;;4.65;1.90;;;;;;;;;;5074397;28;20035;-87
2023/07/17 10:08:46;;;;;;;4.13;2.20;;;;;;;;;;5074570;28;20424;-85
2023/07/17 10:11:13;;;;;;;4.53;2.15;;;;;;;;;;5074560;28;20039;-87
2023/07/17 10:13:38;;;;;;;7.03;2.00;;;;;;;;;;5074432;28;20116;-85
2023/07/17 10:16:04;;;;;;;5.10;1.85;;;;;;;;;;5075180;28;20118;-87
2023/07/17 10:18:30;;;;;;;2.78;1.80;;;;;;;;;;5074665;28;20083;-87
2023/07/17 10:20:55;;;;;;;3.38;1.88;;;;;;;;;;5093321;28;20044;-95
2023/07/17 10:23:25;;;;;;;4.00;2.00;;;;;;;;;;5043355;28;20025;-94
2023/07/17 10:26:05;;;;;;;4.35;1.83;;;;;;;;;;5088751;28;20017;-87
2023/07/17 10:28:32;;;;;;;6.35;1.88;;;;;;;;;;5076163;28;20021;-88
2023/07/17 10:31:04;;;;;;;3.10;1.73;;;;;;;;;;5074724;28;20476;-87
2023/07/17 10:33:35;;;;;;;2.60;1.77;;;;;;;;;;5093202;28;20028;-88
2023/07/17 10:36:00;;;;;;;4.15;2.03;;;;;;;;;;5078678;28;20020;-91
2023/07/17 10:38:36;;;;;;;4.72;1.70;;;;;;;;;;5075688;28;20039;-91
2023/07/17 10:41:12;;;;;;;2.67;1.70;;;;;;;;;;5062802;28;20103;-94
2023/07/17 10:44:09;;;;;;;2.42;1.58;;;;;;;;;;5076618;28;20021;-91
2023/07/17 10:46:36;;;;;;;3.83;2.00;;;;;;;;;;5079029;28;20040;-92
2023/07/17 10:49:12;;;;;;;3.42;2.05;;;;;;;;;;5104764;28;20028;-93
2023/07/17 10:51:45;;;;;;;6.03;2.30;;;;;;;;;;5093825;28;20052;-91
2023/07/17 10:54:14;;;;;;;3.75;1.85;;;;;;;;;;5058171;28;20483;-88
2023/07/17 10:56:45;;;;;;;4.03;1.70;;;;;;;;;;5091143;28;20517;-85
2023/07/17 10:59:11;;;;;;;3.33;1.75;;;;;;;;;;5057135;28;20025;-86
2023/07/17 11:01:36;;;;;;;4.05;1.90;;;;;;;;;;5056508;28;20054;-82
2023/07/17 11:04:02;;;;;;;3.50;2.17;;;;;;;;;;5107068;28;20081;-86
2023/07/17 11:06:27;;;;;;;6.50;2.88;;;;;;;;;;5073326;28;20033;-85
2023/07/17 11:08:57;;;;;;;14.90;5.55;;;;;;;;;;5073273;28;20136;-84
2023/07/17 11:11:23;;;;;;;12.25;5.65;;;;;;;;;;5073185;28;20025;-83
2023/07/17 11:13:50;;;;;;;13.73;5.80;;;;;;;;;;5102483;28;20475;-88
2023/07/17 11:16:16;;;;;;;11.45;5.90;;;;;;;;;;5075070;28;20028;-86
2023/07/17 11:18:49;;;;;;;15.20;5.28;;;;;;;;;;5056470;28;20036;-85
2023/07/17 11:21:16;;;;;;;14.65;6.10;;;;;;;;;;5074781;28;20039;-85
2023/07/17 11:23:55;;;;;;;15.40;6.10;;;;;;;;;;5074604;28;20024;-85
2023/07/17 11:26:31;;;;;;;13.30;6.10;;;;;;;;;;5073086;28;20475;-85
2023/07/17 11:28:58;;;;;;;22.42;9.40;;;;;;;;;;5072079;28;20474;-85
2023/07/17 11:31:24;;;;;;;20.40;8.65;;;;;;;;;;5082640;28;20036;-86
2023/07/17 11:33:50;;;;;;;22.23;8.10;;;;;;;;;;5073698;28;20390;-86
2023/07/17 11:36:16;;;;;;;20.48;8.93;;;;;;;;;;5074154;28;20125;-84
2023/07/17 11:38:41;;;;;;;13.27;6.65;;;;;;;;;;5072649;28;20495;-85
2023/07/17 11:41:07;;;;;;;10.10;5.05;;;;;;;;;;5074059;28;20479;-85
2023/07/17 11:43:33;;;;;;;11.75;5.47;;;;;;;;;;5073997;28;20032;-85
2023/07/17 11:46:03;;;;;;;10.75;4.85;;;;;;;;;;5072546;28;20083;-86
2023/07/17 11:48:30;;;;;;;11.25;4.18;;;;;;;;;;5062575;28;20033;-87
2023/07/17 11:50:57;;;;;;;11.00;4.03;;;;;;;;;;5052619;28;20029;-85
2023/07/17 11:53:22;;;;;;;9.82;3.72;;;;;;;;;;5052638;28;20028;-86
2023/07/17 11:55:49;;;;;;;7.53;3.17;;;;;;;;;;5052463;28;20053;-84
2023/07/17 11:58:16;;;;;;;7.57;3.25;;;;;;;;;;5052331;28;20468;-87
2023/07/17 12:00:43;;;;;;;6.88;3.38;;;;;;;;;;5053673;28;20033;-87
2023/07/17 12:03:09;;;;;;;5.47;2.72;;;;;;;;;;5052324;28;20104;-90
2023/07/17 12:05:35;;;;;;;5.47;2.25;;;;;;;;;;5066032;28;20052;-94
2023/07/17 12:08:01;;;;;;;5.07;2.33;;;;;;;;;;5084386;28;20039;-95
2023/07/17 12:10:26;;;;;;;2.50;2.00;;;;;;;;;;5081083;28;20382;-92
2023/07/17 12:12:51;;;;;;;2.70;1.90;;;;;;;;;;5058724;28;20025;-96
2023/07/17 12:15:17;;;;;;;4.32;2.28;;;;;;;;;;5096864;28;20044;-96
2023/07/17 12:17:42;;;;;;;4.32;2.00;;;;;;;;;;5052496;28;20036;-96
2023/07/17 12:20:08;;;;;;;3.22;1.90;;;;;;;;;;5087869;28;20040;-96
2023/07/17 12:22:34;;;;;;;3.47;2.33;;;;;;;;;;5115988;28;20036;-95
2023/07/17 12:24:59;;;;;;;4.15;1.88;;;;;;;;;;5078266;28;20028;-96
2023/07/17 12:27:25;;;;;;;3.17;2.13;;;;;;;;;;5102245;28;20028;-95
2023/07/17 12:29:50;;;;;;;4.55;2.00;;;;;;;;;;5092871;28;20029;-94
2023/07/17 12:32:16;;;;;;;5.13;1.90;;;;;;;;;;5096126;28;20086;-96
2023/07/17 12:34:41;;;;;;;3.20;1.73;;;;;;;;;;5061136;28;20054;-95
2023/07/17 12:37:07;;;;;;;4.13;1.92;;;;;;;;;;5097584;28;20033;-95
2023/07/17 12:39:33;;;;;;;3.13;1.73;;;;;;;;;;5077405;28;20025;-94
2023/07/17 12:41:59;;;;;;;2.67;1.80;;;;;;;;;;5080086;28;20048;-96
2023/07/17 12:44:24;;;;;;;4.95;2.10;;;;;;;;;;5079426;28;20082;-96
2023/07/17 12:46:49;;;;;;;2.92;1.70;;;;;;;;;;5094788;28;20024;-94
2023/07/17 12:49:15;;;;;;;2.80;1.80;;;;;;;;;;5077094;28;20483;-95
2023/07/17 12:51:41;;;;;;;6.60;1.75;;;;;;;;;;5096489;28;20395;-92
2023/07/17 12:54:07;;;;;;;4.13;1.70;;;;;;;;;;5076414;28;20040;-92
2023/07/17 12:56:32;;;;;;;4.78;1.92;;;;;;;;;;5075839;28;20044;-92
2023/07/17 12:58:57;;;;;;;3.55;1.80;;;;;;;;;;5075911;28;20467;-92
2023/07/17 13:01:23;;;;;;;4.32;2.00;;;;;;;;;;5077209;28;20085;-91
2023/07/17 13:03:48;;;;;;;3.08;1.90;;;;;;;;;;5077127;28;20033;-90
2023/07/17 13:06:14;;;;;;;2.75;1.90;;;;;;;;;;5075855;28;20062;-91
2023/07/17 13:08:40;;;;;;;3.72;2.15;;;;;;;;;;5078133;28;20105;-91
2023/07/17 13:11:05;;;;;;;2.40;1.80;;;;;;;;;;5077140;28;20056;-91
2023/07/17 13:13:31;;;;;;;3.85;2.13;;;;;;;;;;5077146;28;20383;-89
2023/07/17 13:15:56;;;;;;;3.35;1.92;;;;;;;;;;5076221;28;20043;-89
2023/07/17 13:18:21;;;;;;;3.83;2.05;;;;;;;;;;5076802;28;20025;-89
2023/07/17 13:20:47;;;;;;;3.65;2.30;;;;;;;;;;5076769;28;20452;-89
2023/07/17 13:23:12;;;;;;;2.28;1.90;;;;;;;;;;5075358;28;20035;-89
2023/07/17 13:25:38;;;;;;;4.70;2.15;;;;;;;;;;5076875;28;20035;-90
2023/07/17 13:28:03;;;;;;;4.55;2.15;;;;;;;;;;5092323;28;20490;-90
2023/07/17 13:30:29;;;;;;;3.88;2.00;;;;;;;;;;5075658;28;20039;-92
2023/07/17 13:32:54;;;;;;;2.70;1.63;;;;;;;;;;5075667;28;20433;-92
2023/07/17 13:35:19;;;;;;;2.67;1.70;;;;;;;;;;5075590;28;20032;-92
2023/07/17 13:37:45;;;;;;;2.72;1.90;;;;;;;;;;5077911;28;20043;-92
2023/07/17 13:40:11;;;;;;;4.22;2.10;;;;;;;;;;5075835;28;20111;-92
2023/07/17 13:42:36;;;;;;;4.40;2.47;;;;;;;;;;5082703;28;20033;-93
2023/07/17 13:45:02;;;;;;;6.35;2.50;;;;;;;;;;5079548;28;20031;-93
2023/07/17 13:47:27;;;;;;;3.88;2.55;;;;;;;;;;5075704;28;20416;-90
2023/07/17 13:49:53;;;;;;;3.85;2.17;;;;;;;;;;5075930;28;20098;-92
2023/07/17 13:52:18;;;;;;;3.33;1.92;;;;;;;;;;5076488;28;20025;-92
2023/07/17 13:54:44;;;;;;;4.72;2.22;;;;;;;;;;5092231;28;20032;-92
2023/07/17 13:57:09;;;;;;;4.28;2.72;;;;;;;;;;5076040;28;20052;-93
2023/07/17 13:59:34;;;;;;;4.95;2.17;;;;;;;;;;5075111;28;20036;-91
2023/07/17 14:02:00;;;;;;;3.22;1.83;;;;;;;;;;5076036;28;20086;-93
2023/07/17 14:04:25;;;;;;;4.85;2.70;;;;;;;;;;5075940;28;20025;-92
2023/07/17 14:06:51;;;;;;;6.43;2.80;;;;;;;;;;5074950;28;20056;-91
2023/07/17 14:09:16;;;;;;;8.82;2.63;;;;;;;;;;5078484;28;20039;-91
2023/07/17 14:11:43;;;;;;;6.45;2.40;;;;;;;;;;5057642;28;20387;-91
2023/07/17 14:14:09;;;;;;;5.78;2.63;;;;;;;;;;5058620;28;20025;-91
2023/07/17 14:16:34;;;;;;;4.65;2.50;;;;;;;;;;5055420;28;20029;-91
2023/07/17 14:19:00;;;;;;;4.88;2.35;;;;;;;;;;5056164;28;20029;-92
2023/07/17 14:21:26;;;;;;;4.43;2.70;;;;;;;;;;5055046;28;20033;-92
2023/07/17 14:23:51;;;;;;;4.95;2.20;;;;;;;;;;5038089;28;20033;-92
2023/07/17 14:26:17;;;;;;;3.95;2.00;;;;;;;;;;5054680;28;20031;-92
2023/07/17 14:28:42;;;;;;;6.43;2.60;;;;;;;;;;5061689;28;20059;-93
2023/07/17 14:31:08;;;;;;;3.50;2.20;;;;;;;;;;5077960;28;20028;-94
2023/07/17 14:33:33;;;;;;;4.32;2.40;;;;;;;;;;5078047;28;20036;-94
2023/07/17 14:35:58;;;;;;;4.63;2.10;;;;;;;;;;5109222;28;20047;-92